createdAt,value
2023-04-29T00:01:52.190Z,84.37
2023-04-29T00:06:53.960Z,83.08
2023-04-29T00:11:55.625Z,83.74
2023-04-29T00:16:58.519Z,83.83
2023-04-29T00:22:00.257Z,82.82
2023-04-29T00:27:02.659Z,84.19
2023-04-29T00:32:04.620Z,84.63
2023-04-29T00:37:06.508Z,82.30
2023-04-29T00:42:08.463Z,83.28
2023-04-29T00:47:11.649Z,83.54
2023-04-29T00:52:14.929Z,83.25
2023-04-29T00:57:16.959Z,82.88
2023-04-29T01:02:19.233Z,81.78
2023-04-29T01:07:36.305Z,81.73
2023-04-29T01:12:37.838Z,82.28
2023-04-29T01:17:50.753Z,83.23
2023-04-29T01:22:52.602Z,82.48
2023-04-29T01:28:09.231Z,82.54
2023-04-29T01:33:20.712Z,83.34
2023-04-29T01:38:57.703Z,82.68
2023-04-29T01:44:02.673Z,82.82
2023-04-29T01:49:04.283Z,83.59
2023-04-29T01:54:05.891Z,82.90
2023-04-29T01:59:08.282Z,82.86
2023-04-29T02:04:10.013Z,83.32
2023-04-29T02:09:11.776Z,83.33
2023-04-29T02:14:14.128Z,83.77
2023-04-29T02:19:16.373Z,83.74
2023-04-29T02:24:17.953Z,83.87
2023-04-29T02:29:19.578Z,83.31
2023-04-29T02:34:21.246Z,84.31
2023-04-29T02:39:22.939Z,83.33
2023-04-29T02:44:24.663Z,83.84
2023-04-29T02:49:26.303Z,83.59
2023-04-29T02:54:27.961Z,83.67
2023-04-29T02:59:29.565Z,83.32
2023-04-29T03:04:31.251Z,83.69
2023-04-29T03:09:32.898Z,83.57
2023-04-29T03:14:34.505Z,83.28
2023-04-29T03:19:36.135Z,82.49
2023-04-29T03:24:38.836Z,82.90
2023-04-29T03:29:40.458Z,83.74
2023-04-29T03:34:42.173Z,82.16
2023-04-29T03:39:43.802Z,83.01
2023-04-29T03:44:45.646Z,83.20
2023-04-29T03:49:47.599Z,83.46
2023-04-29T03:54:49.217Z,83.48
2023-04-29T03:59:51.442Z,83.31
2023-04-29T04:04:55.362Z,83.57
2023-04-29T04:09:57.117Z,82.99
2023-04-29T04:14:59.322Z,82.82
2023-04-29T04:20:01.037Z,84.77
2023-04-29T04:25:02.723Z,84.83
2023-04-29T04:30:04.693Z,84.29
2023-04-29T04:35:07.458Z,84.53
2023-04-29T04:40:11.416Z,85.84
2023-04-29T04:45:13.135Z,85.84
2023-04-29T04:50:14.832Z,84.38
2023-04-29T04:55:16.461Z,83.66
2023-04-29T05:00:18.098Z,83.13
2023-04-29T05:05:19.793Z,84.12
2023-04-29T05:10:26.449Z,83.66
2023-04-29T05:15:27.978Z,84.65
2023-04-29T05:20:29.619Z,84.51
2023-04-29T05:25:31.252Z,84.68
2023-04-29T05:30:32.948Z,84.47
2023-04-29T05:35:34.818Z,84.48
2023-04-29T05:40:36.441Z,84.81
2023-04-29T05:45:38.041Z,85.33
2023-04-29T05:50:39.663Z,84.69
2023-04-29T05:55:44.722Z,86.53
2023-04-29T06:00:46.781Z,86.09
2023-04-29T06:05:48.975Z,86.79
2023-04-29T06:10:52.280Z,86.12
2023-04-29T06:15:55.466Z,85.87
2023-04-29T06:20:57.086Z,85.71
2023-04-29T06:25:58.694Z,85.58
2023-04-29T06:31:00.355Z,87.00
2023-04-29T06:36:01.923Z,85.62
2023-04-29T06:41:04.504Z,85.86
2023-04-29T06:46:06.084Z,86.77
2023-04-29T06:51:08.366Z,86.17
2023-04-29T06:56:09.954Z,86.20
2023-04-29T07:01:11.589Z,85.37
2023-04-29T07:06:13.307Z,86.34
2023-04-29T07:11:15.288Z,84.98
2023-04-29T07:16:22.051Z,85.01
2023-04-29T07:21:23.882Z,83.95
2023-04-29T07:26:25.475Z,84.07
2023-04-29T07:31:27.267Z,82.80
2023-04-29T07:36:28.929Z,82.86
2023-04-29T07:41:30.497Z,83.88
2023-04-29T07:46:32.239Z,83.45
2023-04-29T07:51:33.886Z,83.25
2023-04-29T07:56:35.832Z,84.09
2023-04-29T08:01:37.511Z,82.64
2023-04-29T08:06:39.084Z,83.12
2023-04-29T08:11:40.665Z,82.82
2023-04-29T08:16:42.285Z,80.98
2023-04-29T08:21:43.901Z,78.63
2023-04-29T08:26:45.468Z,80.37
2023-04-29T08:31:47.137Z,78.41
2023-04-29T08:36:49.207Z,78.24
2023-04-29T08:41:52.140Z,76.57
2023-04-29T08:46:54.335Z,76.32
2023-04-29T08:51:56.275Z,74.32
2023-04-29T08:56:59.364Z,73.05
2023-04-29T09:02:01.072Z,71.16
2023-04-29T09:07:04.271Z,69.66
2023-04-29T09:12:06.106Z,70.81
2023-04-29T09:17:07.744Z,69.69
2023-04-29T09:22:09.452Z,70.51
2023-04-29T09:27:26.825Z,68.07
2023-04-29T09:32:28.525Z,66.96
2023-04-29T09:37:30.964Z,64.73
2023-04-29T09:42:43.137Z,65.96
2023-04-29T09:47:44.879Z,65.43
2023-04-29T09:52:46.634Z,64.95
2023-04-29T09:57:48.233Z,65.03
2023-04-29T10:02:50.192Z,66.13
2023-04-29T10:07:52.438Z,65.14
2023-04-29T10:12:55.197Z,63.29
2023-04-29T10:18:06.571Z,64.11
2023-04-29T10:23:11.162Z,62.33
2023-04-29T10:28:16.402Z,63.15
2023-04-29T10:33:19.401Z,61.48
2023-04-29T10:38:26.404Z,63.50
2023-04-29T10:43:28.291Z,59.40
2023-04-29T10:48:29.978Z,63.65
2023-04-29T10:53:32.104Z,60.07
2023-04-29T10:58:36.812Z,56.84
2023-04-29T11:03:55.925Z,57.45
2023-04-29T11:09:02.654Z,55.83
2023-04-29T11:14:04.288Z,60.12
2023-04-29T11:19:10.156Z,61.22
2023-04-29T11:24:12.956Z,61.34
2023-04-29T11:29:14.824Z,55.26
2023-04-29T11:34:16.377Z,54.92
2023-04-29T11:39:18.042Z,58.29
2023-04-29T11:44:25.287Z,55.83
2023-04-29T11:49:34.415Z,57.95
2023-04-29T11:54:36.057Z,59.01
2023-04-29T11:59:38.053Z,60.28
2023-04-29T12:04:48.889Z,59.10
2023-04-29T12:09:50.713Z,55.42
2023-04-29T12:14:52.814Z,53.15
2023-04-29T12:19:54.859Z,50.60
2023-04-29T12:24:57.262Z,50.37
2023-04-29T12:29:58.891Z,49.03
2023-04-29T12:35:00.647Z,47.89
2023-04-29T12:40:02.251Z,50.93
2023-04-29T12:45:06.804Z,50.91
2023-04-29T12:50:08.848Z,51.48
2023-04-29T12:55:11.502Z,47.78
2023-04-29T13:00:13.610Z,49.68
2023-04-29T13:05:15.507Z,51.61
2023-04-29T13:10:17.663Z,46.16
2023-04-29T13:15:19.362Z,44.51
2023-04-29T13:20:21.079Z,48.67
2023-04-29T13:25:22.769Z,45.17
2023-04-29T13:30:24.513Z,44.98
2023-04-29T13:35:26.172Z,45.05
2023-04-29T13:40:28.525Z,44.97
2023-04-29T13:45:30.649Z,45.97
2023-04-29T13:56:11.418Z,48.30
2023-04-29T14:06:03.033Z,45.71
2023-04-29T14:11:05.461Z,50.12
2023-04-29T14:16:07.723Z,50.80
2023-04-29T14:21:11.156Z,49.62
2023-04-29T14:26:27.138Z,51.54
2023-04-29T14:31:34.171Z,60.91
2023-04-29T14:36:35.848Z,67.04
2023-04-29T14:41:37.435Z,68.84
2023-04-29T14:46:39.145Z,70.03
2023-04-29T14:51:40.947Z,70.31
2023-04-29T14:56:42.545Z,70.55
2023-04-29T15:01:44.255Z,70.03
2023-04-29T15:06:46.087Z,70.82
2023-04-29T15:11:47.687Z,69.00
2023-04-29T15:16:49.412Z,66.25
2023-04-29T15:21:51.741Z,63.21
2023-04-29T15:26:53.460Z,62.68
2023-04-29T15:31:55.706Z,62.09
2023-04-29T15:36:57.395Z,62.86
2023-04-29T15:41:59.271Z,62.14
2023-04-29T15:47:01.060Z,63.97
2023-04-29T15:52:02.792Z,61.74
2023-04-29T15:57:04.539Z,62.69
2023-04-29T16:02:10.885Z,63.66
2023-04-29T16:07:12.715Z,61.99
2023-04-29T16:12:14.382Z,61.25
2023-04-29T16:17:16.177Z,62.87
2023-04-29T16:22:18.151Z,63.43
2023-04-29T16:27:19.824Z,64.75
2023-04-29T16:32:22.422Z,66.08
2023-04-29T16:37:24.103Z,64.18
2023-04-29T16:42:25.961Z,66.64
2023-04-29T16:47:27.671Z,67.97
2023-04-29T16:52:29.400Z,68.42
2023-04-29T16:57:32.505Z,69.13
2023-04-29T17:02:34.313Z,68.80
2023-04-29T17:07:35.954Z,69.51
2023-04-29T17:12:38.762Z,69.49
2023-04-29T17:17:40.364Z,69.61
2023-04-29T17:22:42.018Z,69.77
2023-04-29T17:27:45.767Z,70.25
2023-04-29T17:32:49.720Z,69.96
2023-04-29T17:37:51.462Z,70.67
2023-04-29T17:42:53.409Z,70.01
2023-04-29T17:47:55.928Z,69.98
2023-04-29T17:52:57.791Z,69.79
2023-04-29T17:57:59.373Z,71.52
2023-04-29T18:03:02.522Z,72.86
2023-04-29T18:08:05.245Z,73.07
2023-04-29T18:13:07.010Z,73.59
2023-04-29T18:18:08.771Z,75.10
2023-04-29T18:23:10.956Z,76.06
2023-04-29T18:28:23.654Z,77.69
2023-04-29T18:33:26.846Z,78.92
2023-04-29T18:38:28.450Z,77.39
2023-04-29T18:43:30.063Z,77.31
2023-04-29T18:48:31.848Z,77.87
2023-04-29T18:53:33.575Z,79.95
2023-04-29T18:58:36.120Z,80.35
2023-04-29T19:03:38.014Z,79.73
2023-04-29T19:08:39.818Z,80.48
2023-04-29T19:13:41.727Z,81.94
2023-04-29T19:18:45.646Z,82.98
2023-04-29T19:23:48.047Z,84.02
2023-04-29T19:28:50.126Z,82.81
2023-04-29T19:33:52.768Z,82.17
2023-04-29T19:38:54.629Z,81.28
2023-04-29T19:43:56.962Z,80.42
2023-04-29T19:48:59.285Z,80.93
2023-04-29T19:54:02.628Z,81.06
2023-04-29T19:59:05.093Z,80.39
2023-04-29T20:04:07.026Z,80.64
2023-04-29T20:09:09.468Z,84.20
2023-04-29T20:14:12.185Z,87.07
2023-04-29T20:19:13.810Z,84.35
2023-04-29T20:24:15.517Z,83.03
2023-04-29T20:29:17.289Z,82.46
2023-04-29T20:34:19.094Z,82.25
2023-04-29T20:39:20.760Z,82.43
2023-04-29T20:44:22.919Z,82.69
2023-04-29T20:49:25.020Z,82.47
2023-04-29T20:54:26.606Z,82.52
2023-04-29T20:59:28.331Z,84.16
2023-04-29T21:04:29.981Z,83.33
2023-04-29T21:09:31.626Z,82.93
2023-04-29T21:14:33.868Z,85.21
2023-04-29T21:19:36.797Z,84.77
2023-04-29T21:24:38.385Z,84.91
2023-04-29T21:29:41.161Z,84.68
2023-04-29T21:34:43.213Z,83.73
2023-04-29T21:39:44.843Z,84.26
2023-04-29T21:44:46.730Z,82.54
2023-04-29T21:49:48.529Z,82.82
2023-04-29T21:54:50.124Z,82.28
2023-04-29T21:59:52.433Z,82.04
2023-04-29T22:04:54.487Z,82.56
2023-04-29T22:09:56.206Z,82.60
2023-04-29T22:14:57.979Z,81.96
2023-04-29T22:19:59.558Z,82.76
2023-04-29T22:25:01.171Z,82.93
2023-04-29T22:30:02.742Z,81.38
2023-04-29T22:35:04.683Z,81.93
2023-04-29T22:40:06.888Z,82.33
2023-04-29T22:45:10.115Z,82.40
2023-04-29T22:50:11.756Z,81.10
2023-04-29T22:55:13.356Z,81.43
2023-04-29T23:00:15.903Z,80.88
2023-04-29T23:05:17.613Z,80.35
2023-04-29T23:10:19.186Z,81.30
2023-04-29T23:15:21.039Z,80.79
2023-04-29T23:20:22.803Z,81.39
2023-04-29T23:25:24.488Z,80.25
2023-04-29T23:30:26.267Z,80.54
2023-04-29T23:35:27.866Z,80.41
2023-04-29T23:40:31.132Z,80.58
2023-04-29T23:45:33.296Z,80.43
2023-04-29T23:50:34.923Z,79.19
2023-04-29T23:55:36.588Z,80.04
